Meteo Giornale » Osservazioni meteo Micronesia » Pohnpei NWS Office
ore: 07:50 - Osservazioni Meteo Pohnpei NWS Office
Lat. 6° 58' N Lon. 158° 13' E Alt. 39 metri s.l.m.
29 °C
Coperto
Temp. 24 Ore
26 °C
31 °C
Nord
0 Km/h
Dew point 26 °C
Umidità 83 %
Visibilità 24 Km
Il sole sorge alle ore 06:19
Il sole tramonta alle ore 18:34
| Data e Ora | Cielo e Fenomeni | T °C | DP °C | Um. % | Pres. hPa | Vis. km | Vento km/h | |
|---|---|---|---|---|---|---|---|---|
| Oggi h: 07:50 | Coperto | 29 | 26 | 83 | 1013 | 24 | N 0 | |
| Oggi h: 06:52 | Coperto | 27 | 25 | 88 | 1012 | 24 | N 3.7 | |
| Oggi h: 05:52 | Coperto | 27 | 24 | 83 | 1012 | 24 | O/SO 7.4 | |
| Oggi h: 04:55 | Coperto | 26 | 25 | 94 | 1011 | 24 | N 3.7 | |
| Oggi h: 03:52 | Coperto | 26 | 25 | 94 | 1011 | 24 | N 3.7 | |
| Oggi h: 02:55 | Coperto | 27 | 24 | 83 | 1012 | 24 | SO 7.4 | |
| Oggi h: 01:55 | Coperto | 27 | 24 | 83 | 1012 | 24 | N 5.5 | |
| Oggi h: 00:50 | Coperto | 27 | 24 | 83 | 1013 | 24 | N 3.7 | |
| Ieri h: 23:54 | Coperto | 27 | 25 | 88 | 1013 | 24 | N 5.5 | |
| Ieri h: 22:50 | Coperto | 27 | 25 | 88 | 1014 | 24 | N 5.5 | |
| Ieri h: 21:54 | Molto Nuvoloso | 27 | 25 | 88 | 1013 | 24 | S/SO 7.4 | |
| Ieri h: 20:52 | Coperto | 27 | 25 | 88 | 1013 | 24 | N 5.5 | |
| Ieri h: 19:52 | Coperto | 27 | 24 | 83 | 1012 | 24 | E/SE 7.4 | |
| Ieri h: 18:53 | Coperto | 27 | 25 | 88 | 1012 | 24 | O/SO 7.4 | |
| Ieri h: 17:55 | Coperto | 27 | 26 | 94 | 1011 | 24 | O/SO 7.4 | |
| Ieri h: 16:53 | Coperto | 29 | 25 | 79 | 1011 | 24 | S/SO 7.4 | |
| Ieri h: 15:57 | Coperto | 30 | 26 | 79 | 1011 | 24 | O 7.4 | |
| Ieri h: 14:57 | Coperto | 30 | 26 | 79 | 1011 | 24 | S 14.8 | |
| Ieri h: 13:55 | Coperto | 29 | 25 | 79 | 1011 | 24 | O 7.4 | |
| Ieri h: 12:54 | Coperto | 28 | 26 | 88 | 1012 | 24 | S 9.3 | |
| Ieri h: 11:58 | Coperto | 31 | 27 | 79 | 1012 | 24 | S/SO 7.4 | |
| Ieri h: 10:54 | Coperto | 28 | 26 | 88 | 1012 | 24 | N 5.5 | |
| Ieri h: 09:54 | Coperto | 31 | 26 | 74 | 1012 | 24 | S 9.3 | |
| Ieri h: 08:57 | Coperto | 31 | 26 | 74 | 1012 | 24 | S/SO 9.3 | |



